Falkland, North Carolina
Current Conditions -  °F | °C
As of 8:50 AM on Thursday 23 Oct 2014 (Local Time) from KPGV Reporting Station
Clear Clear  
Wind Chill: 52°   Ceiling: Unl
Heat Index: 52°   Visibility: 10mi
Dew Point: 43°   Wind: 5mph
Humidity: 71%   Direction: 310°NW
Pressure: 30.01"   Gusts: NA
Location:  35.7°N, 77.51°W
Report Text: KPGV 231250Z AUTO 31004KT 10SM CLR 11/06 A3001 RMK AO2
Loading
Personal Weather Stations






























Interactive Weather Map
Tropical Storm Tracking
New forecast layout! Learn more

10-Day Weather Forecast

Advertisements
Track Severe Weather on mobile